Terminal Aerodrome Forecast
Issued by NWS Charleston, WV

Home | Current Version | Previous Version | Text Only | Print | Product List | Glossary On
Versions: 1 2 3 4 5 6 7 8 9 10 11 12 13 14 15 16 17 18 19 20 21 22 23 24
000
FTUS41 KRLX 031739
TAFEKN
TAF
KEKN 031739Z 0318/0418 31005KT P6SM VCTS BKN035CB
     FM032300 VRB03KT P6SM BKN045
     FM040700 00000KT 2SM BR SCT001 BKN060
     FM040900 00000KT 1/4SM FG SCT001 BKN070
     FM041200 00000KT 1SM BR SCT001 SCT070
     FM041300 00000KT P6SM SCT050
     FM041500 00000KT P6SM VCTS BKN045CB=

USA.gov is the U.S. government's official web portal to all federal, state and local government web resources and services.